createdAt,value
2023-01-02T00:01:50.226Z,100603.41
2023-01-02T00:04:19.684Z,100603.27
2023-01-02T00:06:49.544Z,100608.97
2023-01-02T00:09:19.134Z,100609.76
2023-01-02T00:11:48.939Z,100611.11
2023-01-02T00:14:19.425Z,100605.88
2023-01-02T00:16:49.162Z,100594.72
2023-01-02T00:19:18.983Z,100599.02
2023-01-02T00:21:48.712Z,100595.95
2023-01-02T00:24:18.443Z,100591.14
2023-01-02T00:26:48.176Z,100588.88
2023-01-02T00:29:17.678Z,100588.84
2023-01-02T00:31:47.472Z,100593.92
2023-01-02T00:34:17.318Z,100593.78
2023-01-02T00:36:47.056Z,100593.98
2023-01-02T00:39:16.669Z,100589.50
2023-01-02T00:41:46.429Z,100584.53
2023-01-02T00:44:16.220Z,100578.39
2023-01-02T00:46:46.016Z,100574.04
2023-01-02T00:49:15.533Z,100566.84
2023-01-02T00:51:45.442Z,100570.28
2023-01-02T00:54:14.956Z,100564.43
2023-01-02T00:56:44.684Z,100569.05
2023-01-02T00:59:14.308Z,100556.52
2023-01-02T01:01:44.293Z,100556.23
2023-01-02T01:04:15.047Z,100564.02
2023-01-02T01:06:44.781Z,100561.75
2023-01-02T01:09:14.282Z,100557.08
2023-01-02T01:11:44.026Z,100564.65
2023-01-02T01:14:13.504Z,100557.39
2023-01-02T01:16:43.347Z,100554.75
2023-01-02T01:19:13.462Z,100558.35
2023-01-02T01:21:43.359Z,100563.41
2023-01-02T01:24:14.291Z,100572.17
2023-01-02T01:26:44.029Z,100573.11
2023-01-02T01:29:13.511Z,100566.98
2023-01-02T01:31:43.307Z,100562.27
2023-01-02T01:34:13.989Z,100553.64
2023-01-02T01:36:44.148Z,100557.50
2023-01-02T01:39:14.257Z,100553.52
2023-01-02T01:41:44.017Z,100550.69
2023-01-02T01:44:44.984Z,100542.09
2023-01-02T01:47:34.269Z,100536.52
2023-01-02T01:50:12.888Z,100532.51
2023-01-02T01:52:48.241Z,100537.49
2023-01-02T01:55:26.841Z,100531.66
2023-01-02T01:58:02.494Z,100527.41
2023-01-02T02:00:33.264Z,100521.48
2023-01-02T02:03:07.268Z,100531.93
2023-01-02T02:05:38.936Z,100537.11
2023-01-02T02:08:20.783Z,100530.14
2023-01-02T02:10:52.303Z,100534.59
2023-01-02T02:13:22.704Z,100524.64
2023-01-02T02:16:09.027Z,100522.23
2023-01-02T02:18:56.817Z,100532.04
2023-01-02T02:21:49.377Z,100534.16
2023-01-02T02:24:37.131Z,100530.20
2023-01-02T02:27:18.569Z,100530.02
2023-01-02T02:30:08.004Z,100526.91
2023-01-02T02:33:01.952Z,100518.28
2023-01-02T02:35:54.485Z,100516.34
2023-01-02T02:38:29.895Z,100513.09
2023-01-02T02:41:17.785Z,100507.53
2023-01-02T02:43:59.316Z,100510.13
2023-01-02T02:46:40.845Z,100503.16
2023-01-02T02:49:34.624Z,100504.11
2023-01-02T02:52:23.600Z,100493.99
2023-01-02T02:54:59.240Z,100484.33
2023-01-02T02:57:31.057Z,100481.00
2023-01-02T03:00:01.150Z,100472.31
2023-01-02T03:02:31.068Z,100471.52
2023-01-02T03:05:04.152Z,100469.51
2023-01-02T03:07:52.057Z,100472.69
2023-01-02T03:10:33.252Z,100467.59
2023-01-02T03:13:28.789Z,100466.75
2023-01-02T03:16:26.904Z,100470.22
2023-01-02T03:19:05.429Z,100459.88
2023-01-02T03:21:57.748Z,100460.22
2023-01-02T03:24:29.276Z,100456.33
2023-01-02T03:27:02.832Z,100448.34
2023-01-02T03:29:41.286Z,100450.59
2023-01-02T03:32:15.313Z,100454.73
2023-01-02T03:34:48.355Z,100459.88
2023-01-02T03:37:20.939Z,100454.06
2023-01-02T03:39:53.773Z,100454.59
2023-01-02T03:42:29.146Z,100458.34
2023-01-02T03:45:14.044Z,100449.34
2023-01-02T03:47:58.925Z,100449.34
2023-01-02T03:50:35.961Z,100451.08
2023-01-02T03:53:06.225Z,100455.73
2023-01-02T03:55:38.371Z,100447.48
2023-01-02T03:58:22.709Z,100447.70
2023-01-02T04:00:55.581Z,100455.23
2023-01-02T04:03:31.494Z,100450.58
2023-01-02T04:06:04.331Z,100453.14
2023-01-02T04:08:37.449Z,100434.04
2023-01-02T04:11:09.362Z,100434.04
2023-01-02T04:13:47.842Z,100428.80
2023-01-02T04:16:21.421Z,100428.78
2023-01-02T04:18:57.012Z,100429.44
2023-01-02T04:21:29.966Z,100425.73
2023-01-02T04:24:03.094Z,100433.72
2023-01-02T04:26:50.682Z,100426.63
2023-01-02T04:29:20.132Z,100422.08
2023-01-02T04:32:15.349Z,100414.62
2023-01-02T04:34:47.320Z,100416.95
2023-01-02T04:37:37.621Z,100417.42
2023-01-02T04:40:16.047Z,100410.08
2023-01-02T04:42:47.104Z,100414.82
2023-01-02T04:45:18.167Z,100414.82
2023-01-02T04:47:49.784Z,100417.09
2023-01-02T04:50:19.421Z,100416.06
2023-01-02T04:52:49.129Z,100424.42
2023-01-02T04:55:18.642Z,100416.58
2023-01-02T04:57:48.363Z,100419.70
2023-01-02T05:00:18.216Z,100419.70
2023-01-02T05:02:48.009Z,100413.09
2023-01-02T05:05:17.661Z,100420.02
2023-01-02T05:07:47.529Z,100419.06
2023-01-02T05:10:17.048Z,100415.68
2023-01-02T05:12:46.795Z,100417.88
2023-01-02T05:15:16.645Z,100415.81
2023-01-02T05:17:46.464Z,100416.45
2023-01-02T05:20:16.315Z,100418.70
2023-01-02T05:23:04.269Z,100418.70
2023-01-02T05:25:35.992Z,100412.50
2023-01-02T05:28:06.863Z,100411.70
2023-01-02T05:30:41.268Z,100402.63
2023-01-02T05:33:11.000Z,100398.71
2023-01-02T05:35:40.720Z,100401.44
2023-01-02T05:38:10.422Z,100391.80
2023-01-02T05:40:40.190Z,100399.25
2023-01-02T05:43:09.633Z,100394.83
2023-01-02T05:45:39.410Z,100388.80
2023-01-02T05:48:08.853Z,100395.80
2023-01-02T05:50:38.649Z,100396.22
2023-01-02T05:53:10.142Z,100398.58
2023-01-02T05:55:39.909Z,100388.06
2023-01-02T05:58:09.571Z,100373.15
2023-01-02T06:00:39.449Z,100366.27
2023-01-02T06:03:09.198Z,100370.91
2023-01-02T06:05:40.481Z,100368.79
2023-01-02T06:08:10.220Z,100360.20
2023-01-02T06:10:40.434Z,100360.20
2023-01-02T06:13:10.218Z,100363.25
2023-01-02T06:15:40.007Z,100363.63
2023-01-02T06:18:09.535Z,100364.56
2023-01-02T06:20:39.369Z,100363.16
2023-01-02T06:23:08.821Z,100362.76
2023-01-02T06:25:38.587Z,100366.78
2023-01-02T06:28:08.323Z,100371.50
2023-01-02T06:30:38.398Z,100361.72
2023-01-02T06:33:08.176Z,100361.03
2023-01-02T06:35:37.929Z,100363.20
2023-01-02T06:38:08.279Z,100357.31
2023-01-02T06:40:37.967Z,100360.43
2023-01-02T06:43:07.676Z,100361.64
2023-01-02T06:45:37.496Z,100363.98
2023-01-02T06:48:07.145Z,100355.63
2023-01-02T06:50:37.761Z,100361.40
2023-01-02T06:53:07.253Z,100347.77
2023-01-02T06:55:37.264Z,100347.57
2023-01-02T06:58:12.245Z,100356.69
2023-01-02T07:00:38.928Z,100358.48
2023-01-02T07:03:08.632Z,100363.77
2023-01-02T07:05:38.460Z,100354.22
2023-01-02T07:08:08.476Z,100358.39
2023-01-02T07:10:38.250Z,100354.66
2023-01-02T07:13:07.748Z,100361.85
2023-01-02T07:15:37.509Z,100352.97
2023-01-02T07:18:07.123Z,100356.39
2023-01-02T07:20:36.887Z,100359.87
2023-01-02T07:23:06.780Z,100361.83
2023-01-02T07:25:42.395Z,100351.19
2023-01-02T07:28:08.103Z,100355.55
2023-01-02T07:30:37.758Z,100359.19
2023-01-02T07:33:07.369Z,100362.94
2023-01-02T07:35:37.114Z,100360.34
2023-01-02T07:38:06.969Z,100359.92
2023-01-02T07:40:36.785Z,100370.95
2023-01-02T07:43:06.431Z,100366.18
2023-01-02T07:45:36.386Z,100368.73
2023-01-02T07:48:06.910Z,100358.81
2023-01-02T07:50:36.728Z,100353.20
2023-01-02T07:53:06.820Z,100349.80
2023-01-02T07:55:36.740Z,100346.51
2023-01-02T07:58:06.777Z,100361.78
2023-01-02T08:00:36.729Z,100360.48
2023-01-02T08:03:07.763Z,100363.74
2023-01-02T08:05:37.517Z,100356.58
2023-01-02T08:08:07.828Z,100361.40
2023-01-02T08:10:40.759Z,100368.47
2023-01-02T08:13:11.561Z,100367.17
2023-01-02T08:15:41.294Z,100378.67
2023-01-02T08:18:11.031Z,100380.34
2023-01-02T08:20:40.895Z,100384.05
2023-01-02T08:23:10.601Z,100387.06
2023-01-02T08:25:40.323Z,100375.70
2023-01-02T08:28:10.108Z,100382.50
2023-01-02T08:30:41.887Z,100375.09
2023-01-02T08:33:11.440Z,100381.23
2023-01-02T08:35:41.190Z,100373.05
2023-01-02T08:38:10.693Z,100368.36
2023-01-02T08:40:40.896Z,100365.20
2023-01-02T08:43:10.552Z,100366.22
2023-01-02T08:45:40.438Z,100367.61
2023-01-02T08:48:21.152Z,100368.62
2023-01-02T08:50:44.556Z,100378.73
2023-01-02T08:53:14.115Z,100372.28
2023-01-02T08:55:43.847Z,100367.60
2023-01-02T08:58:13.314Z,100381.14
2023-01-02T09:00:43.084Z,100381.14
2023-01-02T09:03:12.679Z,100370.89
2023-01-02T09:05:42.546Z,100362.13
2023-01-02T09:08:12.115Z,100360.94
2023-01-02T09:10:42.755Z,100354.67
2023-01-02T09:13:12.460Z,100358.50
2023-01-02T09:15:46.805Z,100355.08
2023-01-02T09:18:16.829Z,100352.20
2023-01-02T09:20:47.532Z,100359.75
2023-01-02T09:23:17.085Z,100360.70
2023-01-02T09:25:46.883Z,100370.88
2023-01-02T09:28:16.892Z,100382.03
2023-01-02T09:30:46.700Z,100372.98
2023-01-02T09:33:16.854Z,100369.07
2023-01-02T09:35:46.406Z,100369.07
2023-01-02T09:38:17.975Z,100370.24
2023-01-02T09:40:50.757Z,100377.39
2023-01-02T09:43:32.125Z,100380.78
2023-01-02T09:46:05.401Z,100380.78
2023-01-02T09:48:37.513Z,100372.02
2023-01-02T09:51:08.083Z,100377.09
2023-01-02T09:53:37.877Z,100386.19
2023-01-02T09:56:22.257Z,100388.89
2023-01-02T09:58:53.464Z,100384.39
2023-01-02T10:01:34.884Z,100387.84
2023-01-02T10:04:17.447Z,100378.08
2023-01-02T10:06:50.303Z,100333.45
2023-01-02T10:09:36.905Z,100361.42
2023-01-02T10:12:16.051Z,100379.86
2023-01-02T10:14:54.680Z,100357.68
2023-01-02T10:17:26.867Z,100357.68
2023-01-02T10:20:08.171Z,100357.07
2023-01-02T10:22:43.951Z,100351.94
2023-01-02T10:25:16.918Z,100358.41
2023-01-02T10:27:52.712Z,100355.39
2023-01-02T10:30:28.604Z,100351.94
2023-01-02T10:33:07.638Z,100356.66
2023-01-02T10:35:40.459Z,100352.91
2023-01-02T10:38:19.070Z,100360.73
2023-01-02T10:40:51.841Z,100356.00
2023-01-02T10:43:21.568Z,100351.79
2023-01-02T10:45:51.632Z,100351.94
2023-01-02T10:48:23.585Z,100362.41
2023-01-02T10:50:56.400Z,100357.77
2023-01-02T10:53:34.717Z,100354.47
2023-01-02T10:56:07.895Z,100354.61
2023-01-02T10:58:40.730Z,100347.87
2023-01-02T11:01:19.284Z,100342.58
2023-01-02T11:03:51.765Z,100335.45
2023-01-02T11:06:29.011Z,100302.73
2023-01-02T11:09:03.595Z,100303.62
2023-01-02T11:11:33.679Z,100298.88
2023-01-02T11:14:08.664Z,100305.36
2023-01-02T11:16:42.072Z,100310.06
2023-01-02T11:19:27.413Z,100300.84
2023-01-02T11:21:53.550Z,100300.93
2023-01-02T11:24:25.732Z,100306.47
2023-01-02T11:26:56.829Z,100304.61
2023-01-02T11:29:32.316Z,100304.61
2023-01-02T11:32:04.838Z,100304.17
2023-01-02T11:34:41.804Z,100305.86
2023-01-02T11:37:17.147Z,100311.36
2023-01-02T11:40:12.385Z,100312.42
2023-01-02T11:43:02.689Z,100309.58
2023-01-02T11:45:33.815Z,100306.92
2023-01-02T11:48:15.005Z,100298.66
2023-01-02T11:50:45.636Z,100284.91
2023-01-02T11:53:18.181Z,100288.69
2023-01-02T11:56:03.638Z,100288.69
2023-01-02T11:58:57.472Z,100279.67
2023-01-02T12:01:39.346Z,100279.67
2023-01-02T12:04:09.383Z,100272.88
2023-01-02T12:06:57.112Z,100271.84
2023-01-02T12:09:32.622Z,100278.22
2023-01-02T12:12:11.563Z,100287.66
2023-01-02T12:14:56.255Z,100289.70
2023-01-02T12:17:29.053Z,100286.28
2023-01-02T12:20:07.953Z,100286.28
2023-01-02T12:23:00.001Z,100283.41
2023-01-02T12:25:47.791Z,100291.56
2023-01-02T12:28:37.211Z,100287.78
2023-01-02T12:31:32.254Z,100295.64
2023-01-02T12:34:33.903Z,100302.94
2023-01-02T12:37:13.386Z,100304.69
2023-01-02T12:39:50.165Z,100293.00
2023-01-02T12:42:28.061Z,100289.60
2023-01-02T12:44:59.760Z,100279.41
2023-01-02T12:48:00.965Z,100289.15
2023-01-02T12:50:49.136Z,100291.33
2023-01-02T12:54:19.735Z,100286.63
2023-01-02T12:56:46.678Z,100279.67
2023-01-02T12:59:25.287Z,100274.23
2023-01-02T13:01:58.692Z,100275.72
2023-01-02T13:04:31.668Z,100278.67
2023-01-02T13:07:12.972Z,100278.67
2023-01-02T13:09:44.962Z,100270.82
2023-01-02T13:12:22.933Z,100275.45
2023-01-02T13:14:59.063Z,100278.95
2023-01-02T13:17:46.791Z,100274.83
2023-01-02T13:20:22.454Z,100264.39
2023-01-02T13:22:56.147Z,100274.09
2023-01-02T13:25:26.630Z,100275.28
2023-01-02T13:27:58.755Z,100285.42
2023-01-02T13:30:38.486Z,100282.27
2023-01-02T13:33:23.018Z,100283.11
2023-01-02T13:35:53.213Z,100283.11
2023-01-02T13:38:25.312Z,100285.89
2023-01-02T13:40:57.811Z,100289.98
2023-01-02T13:43:30.710Z,100290.34
2023-01-02T13:46:02.070Z,100284.87
2023-01-02T13:48:37.834Z,100289.25
2023-01-02T13:51:10.360Z,100293.34
2023-01-02T13:53:45.950Z,100294.90
2023-01-02T13:56:17.598Z,100303.16
2023-01-02T13:59:00.062Z,100312.25
2023-01-02T14:01:42.030Z,100313.76
2023-01-02T14:04:16.202Z,100311.20
2023-01-02T14:06:53.565Z,100310.25
2023-01-02T14:09:21.143Z,100307.95
2023-01-02T14:11:59.710Z,100308.57
2023-01-02T14:14:47.874Z,100305.46
2023-01-02T14:17:35.244Z,100309.44
2023-01-02T14:20:25.545Z,100302.68
2023-01-02T14:22:58.698Z,100307.54
2023-01-02T14:25:29.803Z,100310.05
2023-01-02T14:28:05.568Z,100313.14
2023-01-02T14:30:40.765Z,100314.11
2023-01-02T14:33:15.388Z,100312.59
2023-01-02T14:35:51.193Z,100312.59
2023-01-02T14:38:24.044Z,100316.52
2023-01-02T14:40:56.292Z,100317.30
2023-01-02T14:43:38.510Z,100316.91
2023-01-02T14:46:23.423Z,100316.91
2023-01-02T14:49:25.543Z,100316.81
2023-01-02T14:51:42.809Z,100317.03
2023-01-02T14:54:18.401Z,100317.37
2023-01-02T14:56:51.199Z,100318.02
2023-01-02T14:59:29.717Z,100320.94
2023-01-02T15:02:02.647Z,100325.09
2023-01-02T15:04:41.397Z,100322.07
2023-01-02T15:07:19.888Z,100324.83
2023-01-02T15:09:52.707Z,100330.38
2023-01-02T15:12:45.873Z,100331.67
2023-01-02T15:15:20.024Z,100332.22
2023-01-02T15:17:51.865Z,100333.77
2023-01-02T15:20:24.642Z,100345.84
2023-01-02T15:22:57.051Z,100341.59
2023-01-02T15:25:39.355Z,100348.43
2023-01-02T15:28:27.012Z,100353.67
2023-01-02T15:31:02.831Z,100353.67
2023-01-02T15:33:34.632Z,100358.93
2023-01-02T15:36:10.427Z,100359.86
2023-01-02T15:38:40.598Z,100364.02
2023-01-02T15:41:21.128Z,100369.16
2023-01-02T15:44:10.579Z,100379.87
2023-01-02T15:46:40.758Z,100382.17
2023-01-02T15:49:13.206Z,100380.74
2023-01-02T15:51:43.046Z,100386.79
2023-01-02T15:54:14.683Z,100387.63
2023-01-02T15:56:44.443Z,100387.15
2023-01-02T15:59:29.281Z,100388.92
2023-01-02T16:01:59.172Z,100387.45
2023-01-02T16:04:32.105Z,100387.94
2023-01-02T16:07:19.735Z,100388.73
2023-01-02T16:09:52.568Z,100393.63
2023-01-02T16:12:24.072Z,100380.58
2023-01-02T16:14:56.731Z,100388.44
2023-01-02T16:17:38.647Z,100381.20
2023-01-02T16:20:17.584Z,100380.89
2023-01-02T16:23:08.341Z,100377.95
2023-01-02T16:25:40.892Z,100380.13
2023-01-02T16:28:34.811Z,100382.70
2023-01-02T16:31:09.018Z,100393.20
2023-01-02T16:33:40.180Z,100388.34
2023-01-02T16:36:15.678Z,100381.38
2023-01-02T16:38:58.666Z,100383.44
2023-01-02T16:41:36.132Z,100385.28
2023-01-02T16:44:15.533Z,100384.56
2023-01-02T16:46:49.325Z,100384.56
2023-01-02T16:49:24.275Z,100375.03
2023-01-02T16:54:58.600Z,100372.52
2023-01-02T16:57:30.948Z,100372.28
2023-01-02T17:00:01.006Z,100365.77
2023-01-02T17:02:30.934Z,100365.77
2023-01-02T17:05:02.939Z,100369.38
2023-01-02T17:07:32.732Z,100374.44
2023-01-02T17:10:04.642Z,100373.58
2023-01-02T17:12:39.720Z,100369.95
2023-01-02T17:15:08.656Z,100374.55
2023-01-02T17:17:39.424Z,100364.89
2023-01-02T17:20:09.590Z,100369.11
2023-01-02T17:22:39.818Z,100372.37
2023-01-02T17:25:12.024Z,100378.61
2023-01-02T17:27:43.155Z,100388.45
2023-01-02T17:30:14.746Z,100396.59
2023-01-02T17:32:47.083Z,100387.50
2023-01-02T17:35:17.597Z,100392.34
2023-01-02T17:37:51.901Z,100398.08
2023-01-02T17:40:21.449Z,100406.25
2023-01-02T17:42:51.264Z,100404.38
2023-01-02T17:45:21.300Z,100402.83
2023-01-02T17:48:11.945Z,100403.45
2023-01-02T17:50:22.700Z,100390.90
2023-01-02T17:52:52.554Z,100397.28
2023-01-02T17:55:22.358Z,100393.16
2023-01-02T17:57:52.113Z,100394.70
2023-01-02T18:00:23.818Z,100398.34
2023-01-02T18:02:54.352Z,100396.06
2023-01-02T18:05:24.546Z,100395.45
2023-01-02T18:07:54.316Z,100394.60
2023-01-02T18:10:32.676Z,100402.87
2023-01-02T18:12:56.714Z,100391.44
2023-01-02T18:15:26.600Z,100385.22
2023-01-02T18:17:56.915Z,100386.86
2023-01-02T18:20:26.760Z,100391.38
2023-01-02T18:22:58.018Z,100401.57
2023-01-02T18:25:30.950Z,100406.76
2023-01-02T18:28:24.739Z,100412.77
2023-01-02T18:31:00.824Z,100416.13
2023-01-02T18:33:33.324Z,100419.23
2023-01-02T18:36:05.603Z,100425.14
2023-01-02T18:38:39.626Z,100423.11
2023-01-02T18:41:21.675Z,100429.48
2023-01-02T18:43:54.968Z,100428.73
2023-01-02T18:47:03.054Z,100436.64
2023-01-02T18:49:25.462Z,100434.16
2023-01-02T18:52:14.085Z,100439.88
2023-01-02T18:54:46.580Z,100456.39
2023-01-02T18:57:21.992Z,100470.70
2023-01-02T18:59:53.317Z,100471.48
2023-01-02T19:02:44.175Z,100467.94
2023-01-02T19:05:20.126Z,100472.13
2023-01-02T19:07:50.234Z,100468.41
2023-01-02T19:10:37.280Z,100471.77
2023-01-02T19:13:18.714Z,100480.33
2023-01-02T19:16:14.763Z,100484.20
2023-01-02T19:18:49.377Z,100478.89
2023-01-02T19:21:33.374Z,100478.89
2023-01-02T19:24:20.875Z,100475.58
2023-01-02T19:26:53.199Z,100480.66
2023-01-02T19:29:33.670Z,100480.97
2023-01-02T19:32:16.431Z,100480.17
2023-01-02T19:34:50.356Z,100483.79
2023-01-02T19:37:25.936Z,100484.90
2023-01-02T19:39:59.281Z,100480.08
2023-01-02T19:42:33.120Z,100480.08
2023-01-02T19:45:11.865Z,100481.45
2023-01-02T19:47:42.507Z,100494.21
2023-01-02T19:50:18.099Z,100496.55
2023-01-02T19:52:48.017Z,100491.89
2023-01-02T19:55:18.409Z,100490.20
2023-01-02T19:57:50.335Z,100482.62
2023-01-02T20:00:20.489Z,100484.73
2023-01-02T20:02:56.806Z,100490.61
2023-01-02T20:05:31.962Z,100495.97
2023-01-02T20:08:02.393Z,100510.94
2023-01-02T20:10:32.372Z,100523.48
2023-01-02T20:13:05.728Z,100522.12
2023-01-02T20:15:47.046Z,100526.56
2023-01-02T20:18:22.636Z,100525.66
2023-01-02T20:20:53.792Z,100527.08
2023-01-02T20:23:29.657Z,100532.55
2023-01-02T20:26:26.313Z,100535.72
2023-01-02T20:29:13.547Z,100535.39
2023-01-02T20:31:36.162Z,100536.09
2023-01-02T20:34:07.215Z,100527.71
2023-01-02T20:36:37.271Z,100527.71
2023-01-02T20:39:10.149Z,100531.20
2023-01-02T20:41:41.301Z,100526.83
2023-01-02T20:44:13.641Z,100523.06
2023-01-02T20:46:43.987Z,100523.23
2023-01-02T20:49:13.742Z,100526.29
2023-01-02T20:51:43.747Z,100523.39
2023-01-02T20:54:16.297Z,100522.12
2023-01-02T20:56:46.172Z,100534.13
2023-01-02T20:59:15.843Z,100537.47
2023-01-02T21:01:46.131Z,100532.28
2023-01-02T21:04:20.635Z,100532.28
2023-01-02T21:06:47.280Z,100540.64
2023-01-02T21:09:17.046Z,100549.06
2023-01-02T21:11:46.915Z,100552.24
2023-01-02T21:14:16.865Z,100551.71
2023-01-02T21:16:46.763Z,100555.31
2023-01-02T21:19:16.510Z,100548.06
2023-01-02T21:21:46.507Z,100555.53
2023-01-02T21:24:16.284Z,100553.14
2023-01-02T21:26:46.092Z,100553.14
2023-01-02T21:29:15.659Z,100552.16
2023-01-02T21:31:48.373Z,100540.22
2023-01-02T21:34:18.061Z,100547.58
2023-01-02T21:36:47.857Z,100546.61
2023-01-02T21:39:17.736Z,100546.88
2023-01-02T21:42:05.612Z,100544.30
2023-01-02T21:44:35.459Z,100547.31
2023-01-02T21:47:06.526Z,100552.08
2023-01-02T21:49:36.516Z,100559.28
2023-01-02T21:52:07.188Z,100558.86
2023-01-02T21:54:37.027Z,100559.94
2023-01-02T21:57:06.810Z,100564.59
2023-01-02T21:59:36.767Z,100563.86
2023-01-02T22:02:06.842Z,100563.02
2023-01-02T22:04:37.289Z,100561.00
2023-01-02T22:09:38.785Z,100566.03
2023-01-02T22:12:08.702Z,100567.03
2023-01-02T22:14:40.316Z,100576.25
2023-01-02T22:17:11.376Z,100578.38
2023-01-02T22:19:40.985Z,100582.50
2023-01-02T22:22:10.816Z,100581.25
2023-01-02T22:24:44.478Z,100596.55
2023-01-02T22:27:14.691Z,100594.73
2023-01-02T22:32:18.583Z,100597.46
2023-01-02T22:34:48.187Z,100600.90
2023-01-02T22:37:22.315Z,100604.19
2023-01-02T22:39:49.806Z,100597.38
2023-01-02T22:45:14.071Z,100604.02
2023-01-02T22:47:44.137Z,100608.55
2023-01-02T22:50:22.631Z,100610.85
2023-01-02T22:52:52.803Z,100612.89
2023-01-02T22:55:24.166Z,100609.75
2023-01-02T22:57:53.863Z,100606.14
2023-01-02T23:00:23.888Z,100606.94
2023-01-02T23:02:53.506Z,100610.02
2023-01-02T23:05:23.273Z,100612.64
2023-01-02T23:07:53.215Z,100613.84
2023-01-02T23:10:22.998Z,100620.96
2023-01-02T23:12:52.851Z,100628.23
2023-01-02T23:15:22.641Z,100630.28
2023-01-02T23:18:10.155Z,100637.59
2023-01-02T23:20:40.191Z,100642.95
2023-01-02T23:23:10.125Z,100632.38
2023-01-02T23:25:43.177Z,100627.66
2023-01-02T23:28:31.892Z,100651.81
2023-01-02T23:30:44.265Z,100658.70
2023-01-02T23:33:14.083Z,100673.93
2023-01-02T23:35:44.152Z,100681.47
2023-01-02T23:38:13.983Z,100701.41
2023-01-02T23:40:43.862Z,100701.41
2023-01-02T23:43:13.715Z,100717.20
2023-01-02T23:45:44.581Z,100723.06
2023-01-02T23:48:14.244Z,100727.66
2023-01-02T23:50:46.293Z,100743.66
2023-01-02T23:53:15.770Z,100748.30
2023-01-02T23:55:45.548Z,100750.73
2023-01-02T23:58:15.113Z,100757.41
